Time;durP1;ratioP1;P1;durP2;ratioP2;P2;SDS_P1;SDS_P2;PMS_P1;PMS_P2;Temp;Humidity;BMP_temperature;BMP_pressure;BME280_temperature;BME280_humidity;BME280_pressure;Samples;Min_cycle;Max_cycle;Signal;HPM_P1;HPM_P2
2023/06/08 00:01:58;;;;;;;11.40;9.00;;;;;;;15.51;65.78;98501.44;5054065;28;20185;-67
2023/06/08 00:04:30;;;;;;;13.20;9.13;;;;;;;15.47;66.16;98512.34;5049331;28;20036;-66
2023/06/08 00:06:56;;;;;;;12.32;8.65;;;;;;;15.41;66.33;98503.41;5052652;28;20461;-67
2023/06/08 00:09:21;;;;;;;11.00;8.63;;;;;;;15.36;65.78;98508.28;5053546;28;20021;-67
2023/06/08 00:11:47;;;;;;;15.00;9.27;;;;;;;15.30;66.18;98504.84;5053564;28;20158;-67
2023/06/08 00:14:13;;;;;;;11.25;8.73;;;;;;;15.25;65.98;98500.31;5053828;28;20053;-68
2023/06/08 00:16:39;;;;;;;11.27;8.57;;;;;;;15.17;66.21;98501.97;5053489;28;20086;-67
2023/06/08 00:19:07;;;;;;;13.13;8.63;;;;;;;15.12;66.45;98502.13;5053289;28;20108;-67
2023/06/08 00:21:33;;;;;;;12.32;8.98;;;;;;;15.10;66.31;98504.41;5053153;28;20021;-67
2023/06/08 00:23:59;;;;;;;11.82;9.43;;;;;;;15.09;66.36;98496.44;5053466;28;20040;-66
2023/06/08 00:26:26;;;;;;;12.45;9.07;;;;;;;15.07;66.49;98496.75;5053484;28;20366;-67
2023/06/08 00:28:51;;;;;;;11.60;8.95;;;;;;;15.05;66.32;98501.00;5052524;28;20021;-67
2023/06/08 00:31:17;;;;;;;12.90;9.75;;;;;;;15.05;66.67;98493.50;5053128;28;20377;-66
2023/06/08 00:33:43;;;;;;;10.60;8.82;;;;;;;15.05;66.66;98493.50;5054396;28;20017;-67
2023/06/08 00:36:08;;;;;;;11.90;8.77;;;;;;;15.03;66.69;98498.53;5038932;28;20024;-67
2023/06/08 00:38:36;;;;;;;12.30;9.20;;;;;;;15.00;66.53;98490.91;5044441;28;20048;-67
2023/06/08 00:41:02;;;;;;;12.07;8.75;;;;;;;14.97;66.81;98495.16;5036513;28;20094;-67
2023/06/08 00:43:27;;;;;;;14.63;9.70;;;;;;;14.94;66.83;98486.69;5035349;28;20038;-67
2023/06/08 00:45:56;;;;;;;14.35;10.20;;;;;;;14.91;66.53;98492.84;5046315;28;20049;-67
2023/06/08 00:48:23;;;;;;;17.10;10.18;;;;;;;14.89;66.73;98484.91;5034518;28;20028;-67
2023/06/08 00:50:50;;;;;;;13.13;9.32;;;;;;;14.85;66.56;98481.16;5035695;28;20032;-67
2023/06/08 00:53:16;;;;;;;13.43;9.95;;;;;;;14.82;66.70;98482.63;5035512;28;20087;-67
2023/06/08 00:55:43;;;;;;;14.98;9.55;;;;;;;14.78;66.67;98486.34;5046164;28;20474;-67
2023/06/08 00:58:13;;;;;;;15.60;10.15;;;;;;;14.76;66.72;98481.16;5034592;28;20439;-66
2023/06/08 01:00:42;;;;;;;13.23;10.27;;;;;;;14.75;66.85;98479.53;5035494;28;20087;-67
2023/06/08 01:03:08;;;;;;;15.57;10.98;;;;;;;14.73;66.74;98476.28;5038983;28;20544;-67
2023/06/08 01:05:33;;;;;;;15.07;10.77;;;;;;;14.72;67.17;98482.94;5037425;28;20056;-67
2023/06/08 01:08:28;;;;;;;12.40;9.55;;;;;;;14.68;66.91;98476.41;5035121;28;20025;-67
2023/06/08 01:11:04;;;;;;;18.02;11.02;;;;;;;14.65;66.97;98474.28;5032515;28;20409;-66
2023/06/08 01:13:39;;;;;;;13.75;10.30;;;;;;;14.64;67.13;98479.03;5042855;28;20022;-66
2023/06/08 01:16:10;;;;;;;12.68;9.80;;;;;;;14.62;67.00;98477.69;5042218;28;20024;-67
2023/06/08 01:18:39;;;;;;;12.40;9.25;;;;;;;14.61;67.33;98479.66;5047335;28;20466;-67
2023/06/08 01:21:24;;;;;;;13.45;9.75;;;;;;;14.55;67.45;98470.72;5034797;28;20025;-66
2023/06/08 01:24:12;;;;;;;13.85;10.00;;;;;;;14.50;67.14;98476.38;5035154;28;20029;-67
2023/06/08 01:26:42;;;;;;;12.88;10.10;;;;;;;14.51;67.42;98461.44;5053611;28;20044;-67
2023/06/08 01:29:10;;;;;;;15.23;10.32;;;;;;;14.52;67.29;98468.59;5036718;28;20017;-67
2023/06/08 01:31:36;;;;;;;14.05;10.07;;;;;;;14.52;67.40;98473.31;5033818;28;20053;-66
2023/06/08 01:34:03;;;;;;;11.38;9.40;;;;;;;14.51;67.48;98482.72;5037004;28;20010;-67
2023/06/08 01:36:36;;;;;;;11.35;9.23;;;;;;;14.47;67.51;98479.78;5039550;28;20095;-67
2023/06/08 01:39:09;;;;;;;11.75;9.30;;;;;;;14.43;67.33;98482.38;5048413;28;20029;-67
2023/06/08 01:41:41;;;;;;;13.15;9.65;;;;;;;14.40;67.57;98471.97;5042073;28;20060;-67
2023/06/08 01:44:10;;;;;;;12.00;9.68;;;;;;;14.39;68.11;98472.31;5043470;28;20029;-67
2023/06/08 01:46:35;;;;;;;11.55;9.48;;;;;;;14.38;67.59;98476.22;5052132;28;20029;-67
2023/06/08 01:49:03;;;;;;;11.45;9.75;;;;;;;14.37;67.69;98483.66;5041660;28;20493;-67
2023/06/08 01:51:30;;;;;;;11.20;9.38;;;;;;;14.35;67.89;98476.84;5033287;28;20048;-67
2023/06/08 01:54:00;;;;;;;11.07;8.73;;;;;;;14.34;67.72;98481.53;5033121;28;20454;-67
2023/06/08 01:56:33;;;;;;;9.98;8.20;;;;;;;14.32;67.63;98483.00;5033358;28;20029;-67
2023/06/08 01:58:59;;;;;;;11.82;9.20;;;;;;;14.31;67.66;98484.94;5034879;28;20044;-66
2023/06/08 02:01:24;;;;;;;11.82;8.98;;;;;;;14.32;67.57;98488.53;5053175;28;20025;-67
2023/06/08 02:03:50;;;;;;;13.10;10.15;;;;;;;14.31;67.88;98484.13;5053830;28;20039;-66
2023/06/08 02:06:16;;;;;;;13.05;9.35;;;;;;;14.33;67.87;98485.44;5037945;28;20040;-67
2023/06/08 02:08:41;;;;;;;14.30;10.00;;;;;;;14.33;67.83;98492.91;5033216;28;20033;-67
2023/06/08 02:11:07;;;;;;;11.38;9.05;;;;;;;14.33;68.13;98488.19;5034009;28;20025;-67
2023/06/08 02:13:35;;;;;;;11.57;9.45;;;;;;;14.32;67.95;98494.03;5033821;28;20037;-66
2023/06/08 02:16:01;;;;;;;14.00;9.68;;;;;;;14.31;67.94;98482.19;5043926;28;20063;-66
2023/06/08 02:18:26;;;;;;;16.60;10.52;;;;;;;14.28;68.12;98489.16;5039974;28;20163;-66
2023/06/08 02:20:52;;;;;;;13.32;9.63;;;;;;;14.22;67.92;98487.69;5035811;28;20037;-67
2023/06/08 02:23:18;;;;;;;12.65;9.55;;;;;;;14.18;67.83;98486.69;5034329;28;20021;-68
2023/06/08 02:25:43;;;;;;;15.02;10.15;;;;;;;14.19;67.74;98488.31;5047014;28;20497;-66
2023/06/08 02:28:09;;;;;;;13.52;10.60;;;;;;;14.17;67.99;98484.25;5056479;28;20024;-66
2023/06/08 02:30:34;;;;;;;12.85;10.05;;;;;;;14.18;68.39;98486.69;5066167;28;20096;-66
2023/06/08 02:33:00;;;;;;;12.52;9.93;;;;;;;14.15;68.29;98492.84;5032932;28;20088;-66
2023/06/08 02:35:25;;;;;;;12.80;10.15;;;;;;;14.14;68.44;98486.53;5048191;28;20041;-66
2023/06/08 02:37:51;;;;;;;13.15;9.88;;;;;;;14.13;68.47;98486.84;5049666;28;20094;-67
2023/06/08 02:40:17;;;;;;;11.93;9.13;;;;;;;14.13;68.82;98484.91;5038910;28;20405;-67
2023/06/08 02:42:42;;;;;;;12.65;9.68;;;;;;;14.12;68.37;98477.75;5034664;28;20034;-67
2023/06/08 02:45:08;;;;;;;13.02;10.32;;;;;;;14.12;68.25;98488.78;5032939;28;20367;-66
2023/06/08 02:47:34;;;;;;;12.68;9.65;;;;;;;14.15;68.68;98490.09;5045382;28;20037;-67
2023/06/08 02:49:59;;;;;;;15.43;10.10;;;;;;;14.15;68.55;98484.56;5041480;28;20026;-67
2023/06/08 02:52:25;;;;;;;11.32;9.48;;;;;;;14.14;68.63;98486.53;5047545;28;20036;-66
2023/06/08 02:54:50;;;;;;;12.00;9.10;;;;;;;14.16;68.86;98493.66;5045595;28;20078;-67
2023/06/08 02:57:15;;;;;;;12.43;9.70;;;;;;;14.15;68.73;98492.84;5036570;28;20028;-67
2023/06/08 02:59:41;;;;;;;14.10;9.38;;;;;;;14.13;68.70;98484.91;5045805;28;20029;-66
2023/06/08 03:02:08;;;;;;;11.35;9.43;;;;;;;14.18;68.72;98491.41;5052773;28;20040;-67
2023/06/08 03:04:33;;;;;;;12.52;9.63;;;;;;;14.20;68.65;98494.66;5041944;28;20478;-67
2023/06/08 03:06:58;;;;;;;17.25;10.48;;;;;;;14.22;68.57;98492.41;5056318;28;20036;-67
2023/06/08 03:09:24;;;;;;;15.23;10.65;;;;;;;14.24;68.68;98490.13;5056004;28;20595;-67
2023/06/08 03:11:51;;;;;;;15.05;10.10;;;;;;;14.27;69.02;98493.06;5055154;28;20028;-66
2023/06/08 03:14:18;;;;;;;15.82;11.00;;;;;;;14.28;69.09;98494.69;5040705;28;20030;-67
2023/06/08 03:16:44;;;;;;;19.05;12.02;;;;;;;14.29;68.99;98499.06;5055188;28;20056;-67
2023/06/08 03:19:10;;;;;;;17.40;11.00;;;;;;;14.32;69.20;98489.31;5049868;28;20100;-67
2023/06/08 03:21:36;;;;;;;19.20;12.13;;;;;;;14.35;69.04;98494.19;5051147;28;20082;-66
2023/06/08 03:24:03;;;;;;;20.75;12.90;;;;;;;14.38;69.37;98496.31;5043914;28;20041;-66
2023/06/08 03:26:28;;;;;;;18.55;12.55;;;;;;;14.43;69.06;98492.63;5054853;28;20033;-66
2023/06/08 03:28:53;;;;;;;21.17;12.95;;;;;;;14.47;69.27;98493.56;5050612;28;20036;-67
2023/06/08 03:31:20;;;;;;;20.23;12.48;;;;;;;14.50;69.54;98490.19;5038484;28;20079;-66
2023/06/08 03:33:46;;;;;;;21.60;13.07;;;;;;;14.52;69.46;98489.88;5036434;28;20037;-66
2023/06/08 03:36:12;;;;;;;20.40;13.35;;;;;;;14.56;69.59;98491.66;5038661;28;20120;-67
2023/06/08 03:38:38;;;;;;;25.10;14.60;;;;;;;14.59;69.67;98493.78;5036836;28;20450;-67
2023/06/08 03:41:03;;;;;;;26.60;15.30;;;;;;;14.65;69.85;98493.63;5041260;28;20048;-67
2023/06/08 03:43:28;;;;;;;27.35;15.15;;;;;;;14.69;69.55;98498.19;5036500;28;20039;-66
2023/06/08 03:45:54;;;;;;;27.98;15.52;;;;;;;14.74;69.95;98502.75;5037755;28;20030;-67
2023/06/08 03:48:19;;;;;;;31.90;16.58;;;;;;;14.79;69.83;98497.09;5046675;28;20033;-67
2023/06/08 03:50:45;;;;;;;32.33;17.10;;;;;;;14.84;69.81;98496.94;5042083;28;20025;-67
2023/06/08 03:53:11;;;;;;;27.80;16.60;;;;;;;14.88;70.08;98495.13;5047398;28;20485;-67
2023/06/08 03:55:36;;;;;;;28.75;16.40;;;;;;;14.96;70.20;98495.47;5050745;28;20037;-66
2023/06/08 03:58:02;;;;;;;29.13;16.35;;;;;;;15.02;70.28;98495.00;5070307;28;20024;-67
2023/06/08 04:00:29;;;;;;;28.23;16.50;;;;;;;15.08;70.22;98494.84;5050963;28;20044;-67
2023/06/08 04:02:55;;;;;;;25.73;15.90;;;;;;;15.15;70.39;98490.44;5055262;28;20032;-67
2023/06/08 04:05:21;;;;;;;25.48;15.50;;;;;;;15.25;70.44;98502.28;5043363;28;20036;-66
2023/06/08 04:07:47;;;;;;;23.13;14.82;;;;;;;15.30;70.83;98505.69;5055028;28;20111;-67
2023/06/08 04:10:13;;;;;;;24.42;14.95;;;;;;;15.37;70.48;98494.13;5042636;28;20017;-66
2023/06/08 04:12:38;;;;;;;25.60;15.65;;;;;;;15.43;70.81;98498.34;5046790;28;20112;-67
2023/06/08 04:15:04;;;;;;;24.88;15.32;;;;;;;15.51;70.66;98487.63;5043061;28;20029;-66
2023/06/08 04:17:30;;;;;;;20.35;14.48;;;;;;;15.55;70.62;98485.81;5054199;28;20474;-66
2023/06/08 04:19:55;;;;;;;21.05;15.10;;;;;;;15.62;70.93;98494.44;5043697;28;20075;-67
2023/06/08 04:22:21;;;;;;;23.35;15.32;;;;;;;15.67;70.55;98494.25;5043748;28;20420;-67
2023/06/08 04:24:47;;;;;;;22.88;14.52;;;;;;;15.72;71.13;98483.00;5050323;28;20029;-67
2023/06/08 04:27:12;;;;;;;20.95;14.57;;;;;;;15.79;71.12;98496.34;5035073;28;20037;-67
2023/06/08 04:29:38;;;;;;;25.70;15.63;;;;;;;15.83;71.30;98497.28;5043219;28;20112;-67
2023/06/08 04:32:03;;;;;;;23.85;14.57;;;;;;;15.89;71.49;98500.72;5046902;28;20030;-66
2023/06/08 04:34:31;;;;;;;23.50;14.45;;;;;;;15.93;71.56;98493.38;5034623;28;20040;-67
2023/06/08 04:36:57;;;;;;;21.92;14.48;;;;;;;15.97;71.33;98490.75;5044150;28;20037;-66
2023/06/08 04:39:22;;;;;;;20.73;13.95;;;;;;;16.02;71.42;98491.41;5052972;28;20039;-67
2023/06/08 04:41:49;;;;;;;20.80;13.52;;;;;;;16.06;71.15;98483.22;5050723;28;20049;-67
2023/06/08 04:44:18;;;;;;;19.40;14.10;;;;;;;16.11;71.71;98491.34;5034227;28;20122;-67
2023/06/08 04:46:44;;;;;;;21.92;14.93;;;;;;;16.16;71.71;98479.28;5033790;28;20036;-66
2023/06/08 04:49:10;;;;;;;18.98;13.88;;;;;;;16.22;72.48;98481.53;5035952;28;20029;-67
2023/06/08 04:51:39;;;;;;;20.70;14.18;;;;;;;16.29;71.84;98480.22;5054009;28;20021;-67
2023/06/08 04:54:05;;;;;;;21.27;15.35;;;;;;;16.35;72.16;98482.44;5038823;28;20032;-67
2023/06/08 04:56:33;;;;;;;24.27;15.35;;;;;;;16.41;71.84;98482.25;5046483;28;20437;-67
2023/06/08 04:58:59;;;;;;;24.25;15.55;;;;;;;16.46;72.11;98479.28;5034975;28;20443;-67
2023/06/08 05:01:25;;;;;;;23.38;15.45;;;;;;;16.52;71.85;98477.94;5034301;28;20052;-66
2023/06/08 05:03:50;;;;;;;20.73;15.75;;;;;;;16.55;71.88;98480.03;5049940;28;20068;-67
2023/06/08 05:06:16;;;;;;;22.98;14.85;;;;;;;16.61;72.08;98481.47;5035068;28;20474;-67
2023/06/08 05:08:42;;;;;;;21.55;15.93;;;;;;;16.64;71.98;98482.75;5035324;28;20065;-66
2023/06/08 05:11:08;;;;;;;26.23;17.60;;;;;;;16.69;72.04;98477.03;5045375;28;20029;-66
2023/06/08 05:13:34;;;;;;;26.10;19.17;;;;;;;16.76;72.29;98493.09;5054224;28;20025;-66
2023/06/08 05:15:59;;;;;;;26.85;19.20;;;;;;;16.76;71.99;98482.81;5037460;28;20044;-67
2023/06/08 05:18:25;;;;;;;27.02;19.58;;;;;;;16.82;72.05;98480.69;5045981;28;20031;-66
2023/06/08 05:20:51;;;;;;;22.67;17.50;;;;;;;16.87;72.28;98487.97;5050123;28;20040;-67
2023/06/08 05:23:16;;;;;;;24.25;17.15;;;;;;;16.89;72.50;98483.72;5034473;28;20098;-66
2023/06/08 05:25:42;;;;;;;22.38;15.65;;;;;;;16.96;72.03;98484.00;5050162;28;20025;-67
2023/06/08 05:28:07;;;;;;;18.50;14.32;;;;;;;16.99;72.03;98496.38;5057201;28;20504;-66
2023/06/08 05:30:32;;;;;;;20.40;13.57;;;;;;;17.03;72.26;98494.56;5053502;28;20025;-67
2023/06/08 05:33:00;;;;;;;15.63;13.05;;;;;;;17.08;71.93;98494.34;5053489;28;20099;-66
2023/06/08 05:35:25;;;;;;;15.75;11.88;;;;;;;17.14;71.89;98494.13;5048331;28;20021;-67
2023/06/08 05:37:51;;;;;;;15.07;11.95;;;;;;;17.17;71.96;98499.00;5052167;28;20066;-66
2023/06/08 05:40:17;;;;;;;14.82;11.48;;;;;;;17.22;72.04;98502.38;5051342;28;20041;-66
2023/06/08 05:42:42;;;;;;;16.00;10.38;;;;;;;17.29;72.08;98501.03;5051979;28;20033;-66
2023/06/08 05:45:08;;;;;;;15.05;10.40;;;;;;;17.33;71.83;98493.63;5051871;28;20095;-66
2023/06/08 05:47:34;;;;;;;14.25;10.65;;;;;;;17.39;71.92;98498.63;5052237;28;20358;-66
2023/06/08 05:49:59;;;;;;;15.15;9.85;;;;;;;17.49;71.86;98497.38;5051790;28;20025;-66
2023/06/08 05:52:25;;;;;;;12.70;9.38;;;;;;;17.58;71.65;98493.72;5051994;28;20377;-67
2023/06/08 05:54:51;;;;;;;11.85;9.80;;;;;;;17.65;71.68;98497.56;5052094;28;20496;-66
2023/06/08 05:57:16;;;;;;;11.15;8.38;;;;;;;17.74;71.62;98497.44;5051720;28;20606;-66
2023/06/08 05:59:42;;;;;;;10.27;8.60;;;;;;;17.82;71.22;98502.09;5051796;28;20035;-66
2023/06/08 06:02:07;;;;;;;12.50;8.02;;;;;;;17.88;71.05;98497.16;5051766;28;20028;-67
2023/06/08 06:04:34;;;;;;;11.40;7.88;;;;;;;17.96;70.99;98500.97;5051854;28;20025;-67
2023/06/08 06:06:59;;;;;;;10.65;7.95;;;;;;;18.04;70.74;98497.31;5051869;28;20023;-67
2023/06/08 06:09:25;;;;;;;9.85;7.45;;;;;;;18.10;70.52;98490.38;5051802;28;20685;-67
2023/06/08 06:11:50;;;;;;;8.25;6.97;;;;;;;18.19;70.16;98497.78;5051605;28;20029;-68
2023/06/08 06:14:16;;;;;;;9.35;7.57;;;;;;;18.23;69.96;98499.53;5051640;28;20418;-68
2023/06/08 06:16:41;;;;;;;8.98;7.10;;;;;;;18.29;69.82;98494.53;5051446;28;20036;-68
2023/06/08 06:19:07;;;;;;;7.80;6.65;;;;;;;18.35;69.50;98493.16;5051487;28;20048;-68
2023/06/08 06:21:32;;;;;;;7.88;5.90;;;;;;;18.39;69.26;98496.88;5051401;28;20100;-67
2023/06/08 06:23:57;;;;;;;9.10;6.32;;;;;;;18.47;68.79;98497.88;5051597;28;20377;-68
2023/06/08 06:26:23;;;;;;;7.75;6.32;;;;;;;18.54;68.56;98495.34;5052501;28;20254;-67
2023/06/08 06:28:48;;;;;;;7.63;6.20;;;;;;;18.62;68.34;98501.13;5054898;28;20367;-67
2023/06/08 06:31:14;;;;;;;9.07;6.53;;;;;;;18.69;68.12;98501.34;5055661;28;20554;-68
2023/06/08 06:33:39;;;;;;;7.40;5.97;;;;;;;18.75;67.87;98497.16;5055386;28;20076;-67
2023/06/08 06:36:05;;;;;;;7.97;6.07;;;;;;;18.85;67.65;98495.88;5055618;28;20028;-67
2023/06/08 06:38:31;;;;;;;5.85;5.00;;;;;;;18.95;67.42;98502.91;5055520;28;20013;-68
2023/06/08 06:40:56;;;;;;;6.60;5.68;;;;;;;19.04;67.01;98498.06;5055046;28;20044;-67
2023/06/08 06:43:22;;;;;;;8.18;5.00;;;;;;;19.16;66.63;98502.75;5055361;28;20481;-68
2023/06/08 06:45:50;;;;;;;6.07;4.47;;;;;;;19.25;66.39;98503.44;5055174;28;20032;-68
2023/06/08 06:48:20;;;;;;;5.25;4.07;;;;;;;19.32;65.78;98502.81;5051789;28;20009;-67
2023/06/08 06:50:45;;;;;;;5.47;4.32;;;;;;;19.39;65.07;98488.28;5054093;28;20017;-68
2023/06/08 06:53:11;;;;;;;5.00;4.15;;;;;;;19.44;64.69;98497.22;5055230;28;20029;-68
2023/06/08 06:55:36;;;;;;;4.90;3.95;;;;;;;19.53;64.23;98499.03;5055067;28;20025;-67
2023/06/08 06:58:02;;;;;;;5.65;4.10;;;;;;;19.61;64.28;98490.50;5055089;28;20032;-66
2023/06/08 07:00:31;;;;;;;5.22;3.88;;;;;;;19.70;63.70;98492.34;5054971;28;20021;-66
2023/06/08 07:02:57;;;;;;;4.75;4.20;;;;;;;19.79;63.50;98496.56;5054938;28;20021;-66
2023/06/08 07:05:23;;;;;;;5.32;3.97;;;;;;;19.90;62.94;98484.94;5055113;28;20380;-66
2023/06/08 07:07:48;;;;;;;5.97;3.90;;;;;;;20.00;62.48;98487.16;5055067;28;20029;-66
2023/06/08 07:10:13;;;;;;;5.20;4.20;;;;;;;20.11;62.32;98487.44;5054812;28;20033;-66
2023/06/08 07:12:39;;;;;;;5.20;4.13;;;;;;;20.20;62.09;98488.06;5054827;28;20107;-67
2023/06/08 07:15:05;;;;;;;5.45;3.67;;;;;;;20.29;61.61;98496.25;5054836;28;20033;-66
2023/06/08 07:17:30;;;;;;;5.55;3.80;;;;;;;20.36;60.49;98492.81;5054761;28;20025;-66
2023/06/08 07:19:57;;;;;;;6.07;3.90;;;;;;;20.40;59.65;98499.28;5054796;28;20117;-67
2023/06/08 07:22:23;;;;;;;5.20;4.30;;;;;;;20.47;59.36;98502.25;5053326;28;20150;-66
2023/06/08 07:24:48;;;;;;;4.90;3.90;;;;;;;20.55;58.52;98499.63;5044599;28;20041;-66
2023/06/08 07:27:13;;;;;;;6.57;4.03;;;;;;;20.60;58.75;98490.97;5058581;28;20028;-66
2023/06/08 07:29:39;;;;;;;4.68;3.80;;;;;;;20.70;57.88;98490.41;5055870;28;20017;-66
2023/06/08 07:32:05;;;;;;;4.95;3.70;;;;;;;20.74;57.75;98494.09;5055664;28;20052;-66
2023/06/08 07:34:31;;;;;;;4.88;3.63;;;;;;;20.79;58.08;98493.84;5056192;28;20032;-66
2023/06/08 07:36:56;;;;;;;4.78;4.15;;;;;;;20.82;57.16;98493.09;5055964;28;20420;-66
2023/06/08 07:39:22;;;;;;;5.32;4.20;;;;;;;20.87;57.23;98489.22;5055767;28;20024;-66
2023/06/08 07:41:47;;;;;;;4.72;4.07;;;;;;;20.93;55.17;98489.75;5055621;28;20052;-66
2023/06/08 07:44:12;;;;;;;5.57;4.07;;;;;;;20.97;55.94;98487.84;5055836;28;20380;-66
2023/06/08 07:46:38;;;;;;;4.63;3.75;;;;;;;20.99;55.12;98485.47;5055312;28;20027;-66
2023/06/08 07:49:03;;;;;;;5.50;4.13;;;;;;;21.01;55.45;98491.50;5062357;28;20032;-66
2023/06/08 07:51:28;;;;;;;4.38;3.63;;;;;;;21.04;55.75;98487.19;5053745;28;20112;-66
2023/06/08 07:53:54;;;;;;;4.38;3.80;;;;;;;21.07;55.25;98481.69;5055252;28;20025;-66
2023/06/08 07:56:21;;;;;;;3.53;3.22;;;;;;;21.12;54.28;98481.38;5055014;28;20338;-66
2023/06/08 07:58:46;;;;;;;4.30;3.45;;;;;;;21.20;54.91;98482.34;5059767;28;20538;-66
2023/06/08 08:01:11;;;;;;;5.10;3.83;;;;;;;21.28;55.10;98483.31;5057750;28;20025;-65
2023/06/08 08:03:37;;;;;;;4.60;3.53;;;;;;;21.33;53.98;98480.22;5053906;28;20494;-65
2023/06/08 08:06:04;;;;;;;6.88;3.55;;;;;;;21.34;54.00;98479.03;5047061;28;20021;-67
2023/06/08 08:08:29;;;;;;;3.97;3.28;;;;;;;21.38;53.74;98477.13;5036158;28;20025;-67
2023/06/08 08:10:55;;;;;;;3.78;3.33;;;;;;;21.44;53.80;98490.75;5035070;28;20026;-65
2023/06/08 08:13:20;;;;;;;4.53;3.40;;;;;;;21.49;53.60;98482.91;5063401;28;20073;-65
2023/06/08 08:15:46;;;;;;;4.93;3.20;;;;;;;21.55;53.96;98487.03;5067724;28;20485;-66
2023/06/08 08:18:12;;;;;;;5.22;3.50;;;;;;;21.62;53.01;98479.97;5066621;28;20024;-66
2023/06/08 08:20:38;;;;;;;3.78;3.35;;;;;;;21.64;53.10;98477.63;5054426;28;20099;-67
2023/06/08 08:23:04;;;;;;;4.80;2.92;;;;;;;21.71;53.54;98481.38;5065054;28;20127;-66
2023/06/08 08:25:29;;;;;;;3.67;3.00;;;;;;;21.80;53.27;98480.31;5054491;28;20055;-67
2023/06/08 08:27:54;;;;;;;2.90;2.60;;;;;;;21.86;52.99;98473.22;5055090;28;20427;-66
2023/06/08 08:30:20;;;;;;;4.13;2.55;;;;;;;21.91;52.39;98483.31;5053250;28;20025;-67
2023/06/08 08:32:45;;;;;;;2.47;2.20;;;;;;;21.97;52.26;98481.81;5059757;28;20024;-67
2023/06/08 08:35:11;;;;;;;4.47;2.35;;;;;;;21.99;51.49;98480.25;5073374;28;20082;-68
2023/06/08 08:37:36;;;;;;;3.47;2.45;;;;;;;22.01;51.36;98486.28;5054065;28;20429;-69
2023/06/08 08:40:02;;;;;;;3.03;2.05;;;;;;;22.04;51.36;98483.91;5051962;28;20032;-67
2023/06/08 08:42:31;;;;;;;2.53;2.20;;;;;;;22.07;50.38;98481.16;5040317;28;20423;-68
2023/06/08 08:45:00;;;;;;;2.95;2.22;;;;;;;22.11;50.94;98484.03;5047366;28;20033;-68
2023/06/08 08:47:29;;;;;;;2.80;2.38;;;;;;;22.14;50.85;98469.34;5049783;28;20025;-68
2023/06/08 08:50:04;;;;;;;3.88;2.30;;;;;;;22.16;51.20;98473.34;5048513;28;20087;-70
2023/06/08 08:52:33;;;;;;;2.70;2.38;;;;;;;22.22;51.15;98471.03;5053210;28;20098;-67
2023/06/08 08:55:00;;;;;;;3.33;2.20;;;;;;;22.27;51.18;98478.31;5053041;28;20113;-67
2023/06/08 08:57:30;;;;;;;3.90;2.15;;;;;;;22.29;50.62;98471.16;5047074;28;20415;-67
2023/06/08 08:59:56;;;;;;;;;;;;;;;22.33;50.88;98464.81;5051793;28;20032;-68
2023/06/08 09:02:21;;;;;;;2.10;1.90;;;;;;;22.36;50.66;98467.69;5051916;28;19916;-69
2023/06/08 09:04:47;;;;;;;4.00;2.30;;;;;;;22.39;50.79;98466.94;5051530;28;20025;-68
2023/06/08 09:07:18;;;;;;;3.40;2.45;;;;;;;22.44;50.31;98458.25;5052696;28;20504;-68
2023/06/08 09:10:15;;;;;;;3.88;2.17;;;;;;;22.50;50.80;98461.53;5052874;28;20495;-67
2023/06/08 09:12:42;;;;;;;3.08;2.22;;;;;;;22.56;50.44;98457.25;5052791;28;20078;-67
2023/06/08 09:15:12;;;;;;;3.67;2.03;;;;;;;22.62;50.56;98460.50;5061509;28;20028;-69
2023/06/08 09:17:38;;;;;;;3.25;2.25;;;;;;;22.67;50.09;98457.38;5043724;28;20523;-68
2023/06/08 09:20:08;;;;;;;3.10;2.35;;;;;;;22.70;50.18;98455.81;5032900;28;20021;-68
2023/06/08 09:22:37;;;;;;;3.42;2.40;;;;;;;22.73;49.48;98446.66;5031937;28;20393;-69
2023/06/08 09:25:06;;;;;;;3.47;2.80;;;;;;;22.76;49.85;98448.72;5038727;28;20025;-68
2023/06/08 09:27:32;;;;;;;2.45;2.08;;;;;;;22.80;49.76;98449.56;5056477;28;20021;-69
2023/06/08 09:30:00;;;;;;;3.80;2.42;;;;;;;22.83;50.08;98448.00;5057252;28;20024;-68
2023/06/08 09:32:37;;;;;;;3.53;2.38;;;;;;;22.86;49.55;98452.81;5049345;28;20021;-67
2023/06/08 09:35:03;;;;;;;3.25;2.17;;;;;;;22.92;50.25;98444.94;5033722;28;20484;-72
2023/06/08 09:37:33;;;;;;;4.43;2.47;;;;;;;22.98;49.79;98457.41;5034524;28;20108;-71
2023/06/08 09:40:00;;;;;;;5.65;2.72;;;;;;;23.02;49.72;98445.06;5050531;28;20029;-70
2023/06/08 09:42:50;;;;;;;3.00;2.30;;;;;;;23.06;49.95;98445.09;5051130;28;20017;-71
2023/06/08 09:45:17;;;;;;;3.42;1.98;;;;;;;23.12;49.45;98449.16;5050030;28;20082;-69
2023/06/08 09:47:43;;;;;;;3.47;2.22;;;;;;;23.14;49.60;98448.78;5047793;28;20226;-70
2023/06/08 09:50:10;;;;;;;3.78;2.63;;;;;;;23.12;49.22;98443.56;5052844;28;20477;-70
2023/06/08 09:52:38;;;;;;;4.38;2.45;;;;;;;23.12;49.38;98449.16;5051821;28;20364;-70
2023/06/08 09:55:05;;;;;;;2.83;2.10;;;;;;;23.20;49.44;98447.28;5055805;28;20035;-71
2023/06/08 09:57:35;;;;;;;4.10;2.40;;;;;;;23.25;49.38;98443.34;5051939;28;20017;-70
2023/06/08 10:00:21;;;;;;;3.83;2.65;;;;;;;23.32;49.55;98443.44;5051486;28;20028;-70
2023/06/08 10:02:53;;;;;;;3.75;2.85;;;;;;;23.41;48.95;98440.31;5052841;28;20529;-71
2023/06/08 10:05:22;;;;;;;3.22;2.47;;;;;;;23.47;49.04;98441.59;5068160;28;20109;-76
2023/06/08 10:07:51;;;;;;;4.40;2.78;;;;;;;23.52;49.40;98434.84;5037966;28;20404;-73
2023/06/08 10:10:26;;;;;;;3.55;2.88;;;;;;;23.63;48.74;98444.16;5033251;28;20071;-75
2023/06/08 10:12:52;;;;;;;2.95;2.38;;;;;;;23.64;48.03;98435.34;5055719;28;20488;-73
2023/06/08 10:15:21;;;;;;;7.50;2.80;;;;;;;23.63;47.42;98432.94;5042348;28;20104;-73
2023/06/08 10:17:47;;;;;;;2.90;2.55;;;;;;;23.64;47.89;98437.38;5037394;28;20429;-73
2023/06/08 10:20:16;;;;;;;3.00;2.70;;;;;;;23.67;47.19;98438.56;5052491;28;20083;-73
2023/06/08 10:22:42;;;;;;;3.90;2.53;;;;;;;23.69;47.72;98425.81;5057130;28;20025;-73
2023/06/08 10:25:09;;;;;;;3.10;2.80;;;;;;;23.82;47.72;98429.13;5052344;28;20025;-73
2023/06/08 10:27:35;;;;;;;7.35;2.95;;;;;;;23.92;47.78;98427.59;5057129;28;20036;-71
2023/06/08 10:30:03;;;;;;;5.15;3.53;;;;;;;24.03;47.18;98433.34;5044003;28;20477;-72
2023/06/08 10:32:34;;;;;;;3.40;2.90;;;;;;;24.08;47.37;98425.38;5050243;28;20036;-73
2023/06/08 10:35:04;;;;;;;4.15;3.00;;;;;;;24.13;47.57;98431.81;5050464;28;20032;-72
2023/06/08 10:37:31;;;;;;;5.00;2.70;;;;;;;24.16;46.98;98419.84;5052676;28;20047;-74
2023/06/08 10:39:58;;;;;;;4.07;2.88;;;;;;;24.18;46.89;98423.06;5049737;28;20025;-72
2023/06/08 10:42:24;;;;;;;3.67;2.97;;;;;;;24.22;46.60;98419.06;5052480;28;20052;-72
2023/06/08 10:44:57;;;;;;;4.07;3.38;;;;;;;24.27;47.00;98417.09;5052480;28;20458;-72
2023/06/08 10:47:24;;;;;;;4.25;3.40;;;;;;;24.33;47.05;98412.75;5052401;28;20079;-71
2023/06/08 10:49:59;;;;;;;4.15;3.58;;;;;;;24.43;47.55;98416.81;5052310;28;20326;-73
2023/06/08 10:52:26;;;;;;;4.85;3.28;;;;;;;24.47;47.16;98412.03;5052739;28;20121;-72
2023/06/08 10:55:11;;;;;;;3.70;3.30;;;;;;;24.43;46.40;98406.41;5052751;28;20554;-71
2023/06/08 10:57:43;;;;;;;4.85;3.72;;;;;;;24.44;45.94;98408.03;5052708;28;20527;-71
2023/06/08 11:00:31;;;;;;;5.10;3.88;;;;;;;24.43;46.65;98402.78;5052813;28;20446;-70
2023/06/08 11:03:00;;;;;;;4.45;3.13;;;;;;;24.46;46.22;98407.59;5051970;28;20028;-69
2023/06/08 11:05:29;;;;;;;3.60;3.13;;;;;;;24.51;46.79;98399.63;5050923;28;20029;-70
2023/06/08 11:07:56;;;;;;;3.63;3.25;;;;;;;24.58;46.07;98400.88;5050217;28;20029;-71
2023/06/08 11:10:24;;;;;;;3.58;3.03;;;;;;;24.64;46.36;98402.09;5052500;28;20025;-69
2023/06/08 11:12:50;;;;;;;5.32;3.42;;;;;;;24.68;46.20;98380.50;5052609;28;20021;-71
2023/06/08 11:15:17;;;;;;;5.75;3.75;;;;;;;24.74;46.32;98387.38;5056248;28;20036;-70
2023/06/08 11:17:59;;;;;;;5.28;3.47;;;;;;;24.79;46.54;98391.78;5056126;28;20100;-72
2023/06/08 11:20:25;;;;;;;5.38;3.47;;;;;;;24.84;46.03;98385.00;5055913;28;20483;-70
2023/06/08 11:22:51;;;;;;;5.60;3.50;;;;;;;24.88;45.91;98383.00;5051906;28;20025;-72
2023/06/08 11:25:23;;;;;;;3.85;3.42;;;;;;;24.95;46.30;98383.03;5055552;28;20380;-71
2023/06/08 11:27:53;;;;;;;5.43;3.40;;;;;;;25.01;46.41;98372.25;5056064;28;20024;-71